Time;durP1;ratioP1;P1;durP2;ratioP2;P2;SDS_P1;SDS_P2;PMS_P1;PMS_P2;Temp;Humidity;BMP_temperature;BMP_pressure;BME280_temperature;BME280_humidity;BME280_pressure;Samples;Min_cycle;Max_cycle;Signal;HPM_P1;HPM_P2
2024/03/23 00:07:24;;;;;;;13.6;8.8;;;;;;;11.28;64.48;98126.666666667;;;;
2024/03/23 00:17:24;;;;;;;16.6;8.8;;;;;;;11.28;64.25;98106.666666667;;;;
2024/03/23 00:28:24;;;;;;;16.6;8.8;;;;;;;11.29;64.68;98088.333333333;;;;
2024/03/23 00:38:24;;;;;;;16.6;8.8;;;;;;;11.35;63.65;98083.333333333;;;;
2024/03/23 00:49:24;;;;;;;12.5;7.9;;;;;;;11.27;63.49;98066.666666667;;;;
2024/03/23 00:59:27;;;;;;;12.5;7.9;;;;;;;11.26;63.5;98061.666666667;;;;
2024/03/23 01:09:24;;;;;;;12.3;8.4;;;;;;;11.21;63.71;98065;;;;
2024/03/23 01:19:24;;;;;;;12.3;8.4;;;;;;;11.15;63.67;98050;;;;
2024/03/23 01:30:24;;;;;;;12.3;8.4;;;;;;;11.1;63.87;98036.666666667;;;;
2024/03/23 01:40:24;;;;;;;10.7;6.6;;;;;;;11.07;63.59;98030;;;;
2024/03/23 01:51:24;;;;;;;10.7;6.6;;;;;;;11.02;64.3;98028.333333333;;;;
2024/03/23 02:01:25;;;;;;;10.7;6.6;;;;;;;10.96;65.11;98023.333333333;;;;
2024/03/23 02:11:24;;;;;;;11.9;7.3;;;;;;;10.86;65.95;98016.666666667;;;;
2024/03/23 02:22:24;;;;;;;11.9;7.3;;;;;;;10.64;66.68;98003.333333333;;;;
2024/03/23 02:32:24;;;;;;;11.9;7.3;;;;;;;10.51;67.2;97990;;;;
2024/03/23 02:43:24;;;;;;;16.1;9.9;;;;;;;10.4;68.37;97983.333333333;;;;
2024/03/23 02:54:24;;;;;;;16.1;9.9;;;;;;;10.32;68.97;97971.666666667;;;;
2024/03/23 03:04:24;;;;;;;16.1;9.9;;;;;;;10.29;69.62;97971.666666667;;;;
2024/03/23 03:15:24;;;;;;;14.3;10.2;;;;;;;10.26;69.89;97970;;;;
2024/03/23 03:26:24;;;;;;;14.3;10.2;;;;;;;10.2;70.15;97941.666666667;;;;
2024/03/23 03:36:24;;;;;;;14.3;10.2;;;;;;;10.07;70.67;97933.333333333;;;;
2024/03/23 03:46:24;;;;;;;16;10.1;;;;;;;10.06;70.47;97925;;;;
2024/03/23 03:57:24;;;;;;;16;10.1;;;;;;;9.93;71.25;97903.333333333;;;;
2024/03/23 04:08:24;;;;;;;14.8;8.7;;;;;;;9.88;71.19;97905;;;;
2024/03/23 04:18:24;;;;;;;14.8;8.7;;;;;;;9.78;71.48;97903.333333333;;;;
2024/03/23 04:29:26;;;;;;;14.8;8.7;;;;;;;9.83;71.21;97903.333333333;;;;
2024/03/23 04:39:24;;;;;;;18.9;10.5;;;;;;;9.9;71.16;97890;;;;
2024/03/23 04:49:24;;;;;;;18.9;10.5;;;;;;;9.89;71.87;97881.666666667;;;;
2024/03/23 05:00:25;;;;;;;18.9;10.5;;;;;;;9.93;72.12;97875;;;;
2024/03/23 05:11:24;;;;;;;14.9;10.6;;;;;;;9.97;73.02;97870;;;;
2024/03/23 05:22:24;;;;;;;14.9;10.6;;;;;;;9.95;73.74;97861.666666667;;;;
2024/03/23 05:32:24;;;;;;;14.9;10.6;;;;;;;9.96;74.14;97840;;;;
2024/03/23 05:43:24;;;;;;;14.7;8.7;;;;;;;10.06;74.65;97838.333333333;;;;
2024/03/23 05:53:24;;;;;;;14.7;8.7;;;;;;;10.05;75.93;97820;;;;
2024/03/23 06:03:24;;;;;;;14.7;8.7;;;;;;;10.25;75.24;97818.333333333;;;;
2024/03/23 06:14:24;;;;;;;13.6;9.3;;;;;;;10.52;74.89;97805;;;;
2024/03/23 06:25:24;;;;;;;13.6;9.3;;;;;;;10.53;75.19;97793.333333333;;;;
2024/03/23 06:36:24;;;;;;;13.6;9.3;;;;;;;10.81;75.79;97793.333333333;;;;
2024/03/23 06:47:25;;;;;;;15.4;9.1;;;;;;;11.33;74.56;97793.333333333;;;;
2024/03/23 06:57:24;;;;;;;15.4;9.1;;;;;;;11.61;73.91;97790;;;;
2024/03/23 07:07:24;;;;;;;15.4;9.1;;;;;;;11.88;73.54;97788.333333333;;;;
2024/03/23 07:17:24;;;;;;;17.6;11.8;;;;;;;12.38;72.92;97783.333333333;;;;
2024/03/23 07:27:24;;;;;;;17.6;11.8;;;;;;;12.85;71.88;97778.333333333;;;;
2024/03/23 07:38:24;;;;;;;17.9;13.7;;;;;;;13.42;69.3;97763.333333333;;;;
2024/03/23 07:48:24;;;;;;;17.9;13.7;;;;;;;13.98;67.27;97746.666666667;;;;
2024/03/23 07:59:25;;;;;;;17.9;13.7;;;;;;;14.36;65.48;97728.333333333;;;;
2024/03/23 08:10:24;;;;;;;16.9;14.7;;;;;;;14.77;66.21;97700;;;;
2024/03/23 08:20:24;;;;;;;16.9;14.7;;;;;;;15.84;62.68;97696.666666667;;;;
2024/03/23 08:31:24;;;;;;;16.9;14.7;;;;;;;15.91;59.25;97691.666666667;;;;
2024/03/23 08:38:13;;;;;;;13.3;8.9;;;;;;;15.98;57.84;97678.333333333;;;;
2024/03/23 08:48:13;;;;;;;13.3;8.9;;;;;;;16.19;57.5;97651.666666667;;;;
2024/03/23 08:59:13;;;;;;;13.3;8.9;;;;;;;16.59;57.39;97640;;;;
2024/03/23 09:10:13;;;;;;;11.6;8.3;;;;;;;17.11;55.48;97621.666666667;;;;
2024/03/23 09:21:13;;;;;;;11.6;8.3;;;;;;;16.8;49.54;97606.666666667;;;;
2024/03/23 09:32:13;;;;;;;11.6;8.3;;;;;;;17.03;49.18;97585;;;;
2024/03/23 09:43:13;;;;;;;7;4.2;;;;;;;17.12;48.19;97566.666666667;;;;
2024/03/23 09:53:13;;;;;;;7;4.2;;;;;;;17.19;47.74;97546.666666667;;;;
2024/03/23 10:03:13;;;;;;;7;4.2;;;;;;;17.1;47.56;97526.666666667;;;;
2024/03/23 10:13:13;;;;;;;6.5;3.9;;;;;;;17.33;48.99;97501.666666667;;;;
2024/03/23 10:24:13;;;;;;;6.5;3.9;;;;;;;17.28;45.36;97476.666666667;;;;
2024/03/23 10:35:13;;;;;;;6.5;3.9;;;;;;;17.73;46.72;97465;;;;
2024/03/23 10:46:13;;;;;;;7.4;3.7;;;;;;;18.04;42.38;97438.333333333;;;;
2024/03/23 10:57:13;;;;;;;7.4;3.7;;;;;;;18.8;42.78;97401.666666667;;;;
2024/03/23 11:08:13;;;;;;;7.4;3.7;;;;;;;18.68;43.27;97375;;;;
2024/03/23 11:18:13;;;;;;;8;4.1;;;;;;;19.13;44.4;97368.333333333;;;;
2024/03/23 11:28:13;;;;;;;8;4.1;;;;;;;19.4;42.88;97348.333333333;;;;
2024/03/23 11:39:13;;;;;;;6.3;3.5;;;;;;;19.8;41.6;97310;;;;
2024/03/23 11:49:13;;;;;;;6.3;3.5;;;;;;;20.31;41.07;97293.333333333;;;;
2024/03/23 11:59:13;;;;;;;6.3;3.5;;;;;;;20.66;39.15;97263.333333333;;;;
2024/03/23 12:10:14;;;;;;;8.5;3.7;;;;;;;20.59;39.41;97210;;;;
2024/03/23 12:21:13;;;;;;;8.5;3.7;;;;;;;20.07;39.22;97190;;;;
2024/03/23 12:31:13;;;;;;;8.5;3.7;;;;;;;19.6;40.14;97173.333333333;;;;
2024/03/23 12:42:13;;;;;;;4.8;3.1;;;;;;;19.19;42.37;97146.666666667;;;;
2024/03/23 12:53:13;;;;;;;4.8;3.1;;;;;;;20;43.57;97118.333333333;;;;
2024/03/23 13:04:13;;;;;;;4.8;3.1;;;;;;;20.4;42.19;97088.333333333;;;;
2024/03/23 13:15:16;;;;;;;4.9;2.3;;;;;;;20.54;40.02;97061.666666667;;;;
2024/03/23 13:26:13;;;;;;;4.9;2.3;;;;;;;20.43;41.37;97038.333333333;;;;
2024/03/23 13:37:13;;;;;;;4.9;2.3;;;;;;;20.56;39.15;97021.666666667;;;;
2024/03/23 13:47:13;;;;;;;3.8;2;;;;;;;20.67;36.02;97005;;;;
2024/03/23 13:58:13;;;;;;;3.8;2;;;;;;;20.73;36.54;96991.666666667;;;;
2024/03/23 14:08:13;;;;;;;3.8;2;;;;;;;20.32;37.02;96993.333333333;;;;
2024/03/23 14:18:14;;;;;;;3.9;1.8;;;;;;;19.99;37.39;96998.333333333;;;;
2024/03/23 14:29:13;;;;;;;3.9;1.8;;;;;;;19.56;36.62;97013.333333333;;;;
2024/03/23 14:39:13;;;;;;;21.4;5.6;;;;;;;17.4;59.21;97181.666666667;;;;
2024/03/23 14:49:13;;;;;;;21.4;5.6;;;;;;;13.62;71.45;97295;;;;
2024/03/23 15:00:13;;;;;;;21.4;5.6;;;;;;;12.45;73.17;97313.333333333;;;;
2024/03/23 15:11:13;;;;;;;3.8;1.2;;;;;;;12.25;74.1;97320;;;;
2024/03/23 15:21:19;;;;;;;3.8;1.2;;;;;;;11.79;77.84;97328.333333333;;;;
2024/03/23 15:32:14;;;;;;;3.8;1.2;;;;;;;11.63;79.56;97356;;;;
2024/03/23 15:43:13;;;;;;;2.6;1.3;;;;;;;11.48;82.85;97413.333333333;;;;
2024/03/23 15:53:13;;;;;;;2.6;1.3;;;;;;;11.31;84.27;97415;;;;
2024/03/23 16:03:13;;;;;;;2.6;1.3;;;;;;;11.29;84.67;97423.333333333;;;;
2024/03/23 16:14:13;;;;;;;6.3;2.4;;;;;;;10.94;84.3;97410;;;;
2024/03/23 16:24:13;;;;;;;6.3;2.4;;;;;;;10.68;81.96;97403.333333333;;;;
2024/03/23 16:34:13;;;;;;;6.3;2.4;;;;;;;10.68;81.37;97386.666666667;;;;
2024/03/23 16:44:13;;;;;;;3.3;1.2;;;;;;;10.48;79.29;97383.333333333;;;;
2024/03/23 16:54:13;;;;;;;3.3;1.2;;;;;;;10.67;74.95;97380;;;;
2024/03/23 17:05:13;;;;;;;3.3;1.2;;;;;;;10.6;76.57;97416.666666667;;;;
2024/03/23 17:16:15;;;;;;;3.3;1.6;;;;;;;10.56;76.98;97428.333333333;;;;
2024/03/23 17:27:13;;;;;;;3.3;1.6;;;;;;;10.39;79.37;97460;;;;
2024/03/23 17:37:13;;;;;;;3.3;1.6;;;;;;;10.33;79.97;97483.333333333;;;;
2024/03/23 17:48:14;;;;;;;7.5;3.4;;;;;;;10.19;81.09;97535;;;;
2024/03/23 17:58:13;;;;;;;7.5;3.4;;;;;;;8.12;88.02;97661.666666667;;;;
2024/03/23 18:08:13;;;;;;;7.5;3.4;;;;;;;7.57;89.4;97663.333333333;;;;
2024/03/23 18:19:13;;;;;;;5.6;2.9;;;;;;;7.14;90.39;97685;;;;
2024/03/23 18:29:15;;;;;;;5.6;2.9;;;;;;;7.14;91.24;97676.666666667;;;;
2024/03/23 18:40:13;;;;;;;5.7;2.9;;;;;;;6.89;90.99;97686.666666667;;;;
2024/03/23 18:50:13;;;;;;;5.7;2.9;;;;;;;6.85;90.65;97723.333333333;;;;
2024/03/23 19:01:13;;;;;;;5.7;2.9;;;;;;;6.77;90.68;97721.666666667;;;;
2024/03/23 19:11:13;;;;;;;8.4;4.2;;;;;;;6.7;90.45;97703.333333333;;;;
2024/03/23 19:22:13;;;;;;;8.4;4.2;;;;;;;6.46;89.27;97718.333333333;;;;
2024/03/23 19:32:13;;;;;;;8.4;4.2;;;;;;;6.31;89.18;97751.666666667;;;;
2024/03/23 19:42:14;;;;;;;7.2;3.9;;;;;;;6.36;89.85;97748.333333333;;;;
2024/03/23 19:52:13;;;;;;;;;;;;;;;;;97767.5;;;;
2024/03/23 20:03:13;;;;;;;;;;;;;;;;;97772.5;;;;
2024/03/23 20:14:13;;;;;;;;;;;;;;;;;97756;;;;
2024/03/23 20:24:13;;;;;;;;;;;;;;;;;97736;;;;
2024/03/23 20:35:13;;;;;;;;;;;;;;;;;97726;;;;
2024/03/23 20:46:13;;;;;;;;;;;;;;;;;97744;;;;
2024/03/23 20:57:13;;;;;;;;;;;;;;;5.81;88.58;97725;;;;
2024/03/23 21:07:13;;;;;;;8;4.1;;;;;;;5.74;88.18;97725;;;;
2024/03/23 21:17:13;;;;;;;8;4.1;;;;;;;5.6;86.11;97736.666666667;;;;
2024/03/23 21:28:13;;;;;;;8.2;4.1;;;;;;;5.55;85.93;97741.666666667;;;;
2024/03/23 21:38:13;;;;;;;8.2;4.1;;;;;;;5.43;85.38;97735;;;;
2024/03/23 21:49:13;;;;;;;8.2;4.1;;;;;;;5.39;84.96;97721.666666667;;;;
2024/03/23 21:59:13;;;;;;;10.9;5.1;;;;;;;5.31;83.26;97711.666666667;;;;
2024/03/23 22:09:13;;;;;;;10.9;5.1;;;;;;;5.2;82.19;97690;;;;
2024/03/23 22:20:13;;;;;;;10.9;5.1;;;;;;;5.19;83.53;97716.666666667;;;;
2024/03/23 22:30:13;;;;;;;5.1;2.9;;;;;;;5.19;85.15;97710;;;;
2024/03/23 22:41:13;;;;;;;5.1;2.9;;;;;;;5.11;82.65;97705;;;;
2024/03/23 22:52:13;;;;;;;5.1;2.9;;;;;;;5.07;82.52;97690;;;;
2024/03/23 23:02:13;;;;;;;7.7;3.8;;;;;;;5.02;83.76;97713.333333333;;;;
2024/03/23 23:13:13;;;;;;;7.7;3.8;;;;;;;4.89;82.36;97721.666666667;;;;
2024/03/23 23:24:13;;;;;;;7.7;3.8;;;;;;;4.88;83.3;97710;;;;
2024/03/23 23:35:13;;;;;;;6.6;3.1;;;;;;;4.83;83.67;97711.666666667;;;;
2024/03/23 23:45:13;;;;;;;6.6;3.1;;;;;;;4.79;80.88;97723.333333333;;;;
2024/03/23 23:56:13;;;;;;;6.6;3.1;;;;;;;4.84;80.54;97725;;;;
